sensor_id;sensor_type;location;lat;lon;timestamp;P1;durP1;ratioP1;P2;durP2;ratioP2
4106;SDS011;21906;50.812;7.132;2023-02-20T00:00:04;9.37;;;7.87;;
4106;SDS011;21906;50.812;7.132;2023-02-20T00:02:31;11.90;;;7.80;;
4106;SDS011;21906;50.812;7.132;2023-02-20T00:04:57;8.00;;;7.13;;
4106;SDS011;21906;50.812;7.132;2023-02-20T00:07:23;11.50;;;8.20;;
4106;SDS011;21906;50.812;7.132;2023-02-20T00:09:49;10.67;;;7.33;;
4106;SDS011;21906;50.812;7.132;2023-02-20T00:12:14;9.57;;;7.90;;
4106;SDS011;21906;50.812;7.132;2023-02-20T00:14:40;13.90;;;9.20;;
4106;SDS011;21906;50.812;7.132;2023-02-20T00:17:06;10.03;;;7.87;;
4106;SDS011;21906;50.812;7.132;2023-02-20T00:19:31;9.40;;;8.00;;
4106;SDS011;21906;50.812;7.132;2023-02-20T00:21:57;12.37;;;8.27;;
4106;SDS011;21906;50.812;7.132;2023-02-20T00:24:23;11.70;;;8.00;;
4106;SDS011;21906;50.812;7.132;2023-02-20T00:26:49;14.03;;;8.60;;
4106;SDS011;21906;50.812;7.132;2023-02-20T00:29:17;12.70;;;8.73;;
4106;SDS011;21906;50.812;7.132;2023-02-20T00:31:49;9.93;;;7.57;;
4106;SDS011;21906;50.812;7.132;2023-02-20T00:34:20;10.33;;;8.00;;
4106;SDS011;21906;50.812;7.132;2023-02-20T00:36:46;11.10;;;7.97;;
4106;SDS011;21906;50.812;7.132;2023-02-20T00:39:12;10.23;;;8.33;;
4106;SDS011;21906;50.812;7.132;2023-02-20T00:41:38;10.83;;;8.00;;
4106;SDS011;21906;50.812;7.132;2023-02-20T00:44:03;11.57;;;8.73;;
4106;SDS011;21906;50.812;7.132;2023-02-20T00:46:29;10.77;;;8.03;;
4106;SDS011;21906;50.812;7.132;2023-02-20T00:48:55;10.83;;;8.03;;
4106;SDS011;21906;50.812;7.132;2023-02-20T00:51:20;12.20;;;8.73;;
4106;SDS011;21906;50.812;7.132;2023-02-20T00:53:46;13.20;;;8.70;;
4106;SDS011;21906;50.812;7.132;2023-02-20T00:56:12;14.40;;;8.90;;
4106;SDS011;21906;50.812;7.132;2023-02-20T00:58:37;13.83;;;8.60;;
4106;SDS011;21906;50.812;7.132;2023-02-20T01:01:03;10.87;;;8.40;;
4106;SDS011;21906;50.812;7.132;2023-02-20T01:03:29;12.10;;;8.33;;
4106;SDS011;21906;50.812;7.132;2023-02-20T01:05:55;13.70;;;8.83;;
4106;SDS011;21906;50.812;7.132;2023-02-20T01:08:20;11.17;;;8.20;;
4106;SDS011;21906;50.812;7.132;2023-02-20T01:10:46;11.47;;;8.20;;
4106;SDS011;21906;50.812;7.132;2023-02-20T01:13:12;10.33;;;7.63;;
4106;SDS011;21906;50.812;7.132;2023-02-20T01:15:37;12.97;;;8.97;;
4106;SDS011;21906;50.812;7.132;2023-02-20T01:18:03;10.67;;;7.80;;
4106;SDS011;21906;50.812;7.132;2023-02-20T01:20:30;10.80;;;7.43;;
4106;SDS011;21906;50.812;7.132;2023-02-20T01:22:56;11.80;;;8.63;;
4106;SDS011;21906;50.812;7.132;2023-02-20T01:25:22;11.23;;;7.70;;
4106;SDS011;21906;50.812;7.132;2023-02-20T01:27:47;11.00;;;8.03;;
4106;SDS011;21906;50.812;7.132;2023-02-20T01:30:13;12.40;;;8.10;;
4106;SDS011;21906;50.812;7.132;2023-02-20T01:32:39;11.83;;;8.47;;
4106;SDS011;21906;50.812;7.132;2023-02-20T01:35:05;11.57;;;8.70;;
4106;SDS011;21906;50.812;7.132;2023-02-20T01:37:31;13.33;;;9.03;;
4106;SDS011;21906;50.812;7.132;2023-02-20T01:39:57;14.67;;;8.60;;
4106;SDS011;21906;50.812;7.132;2023-02-20T01:42:23;16.83;;;9.37;;
4106;SDS011;21906;50.812;7.132;2023-02-20T01:44:52;12.83;;;8.70;;
4106;SDS011;21906;50.812;7.132;2023-02-20T01:47:19;14.07;;;8.73;;
4106;SDS011;21906;50.812;7.132;2023-02-20T01:49:48;12.03;;;8.00;;
4106;SDS011;21906;50.812;7.132;2023-02-20T01:52:22;10.70;;;7.90;;
4106;SDS011;21906;50.812;7.132;2023-02-20T01:55:15;14.20;;;8.77;;
4106;SDS011;21906;50.812;7.132;2023-02-20T01:57:52;12.87;;;8.83;;
4106;SDS011;21906;50.812;7.132;2023-02-20T02:00:26;12.10;;;8.13;;
4106;SDS011;21906;50.812;7.132;2023-02-20T02:03:04;10.70;;;7.80;;
4106;SDS011;21906;50.812;7.132;2023-02-20T02:05:41;11.00;;;7.37;;
4106;SDS011;21906;50.812;7.132;2023-02-20T02:08:10;12.43;;;7.40;;
4106;SDS011;21906;50.812;7.132;2023-02-20T02:13:23;12.10;;;7.37;;
4106;SDS011;21906;50.812;7.132;2023-02-20T02:15:51;10.20;;;7.57;;
4106;SDS011;21906;50.812;7.132;2023-02-20T02:19:24;10.70;;;7.30;;
4106;SDS011;21906;50.812;7.132;2023-02-20T02:41:10;7.97;;;7.17;;
4106;SDS011;21906;50.812;7.132;2023-02-20T02:43:50;8.23;;;6.60;;
4106;SDS011;21906;50.812;7.132;2023-02-20T02:48:57;7.33;;;6.00;;
4106;SDS011;21906;50.812;7.132;2023-02-20T02:51:32;7.33;;;5.80;;
4106;SDS011;21906;50.812;7.132;2023-02-20T02:54:15;8.60;;;5.63;;
4106;SDS011;21906;50.812;7.132;2023-02-20T02:56:50;7.40;;;6.20;;
4106;SDS011;21906;50.812;7.132;2023-02-20T02:59:18;6.10;;;5.47;;
4106;SDS011;21906;50.812;7.132;2023-02-20T03:01:57;5.93;;;5.33;;
4106;SDS011;21906;50.812;7.132;2023-02-20T03:04:26;7.03;;;5.80;;
4106;SDS011;21906;50.812;7.132;2023-02-20T03:07:06;7.63;;;5.30;;
4106;SDS011;21906;50.812;7.132;2023-02-20T03:09:36;5.83;;;5.33;;
4106;SDS011;21906;50.812;7.132;2023-02-20T03:12:05;5.57;;;5.07;;
4106;SDS011;21906;50.812;7.132;2023-02-20T03:14:38;5.60;;;5.00;;
4106;SDS011;21906;50.812;7.132;2023-02-20T03:17:41;5.77;;;5.00;;
4106;SDS011;21906;50.812;7.132;2023-02-20T03:20:14;6.10;;;5.50;;
4106;SDS011;21906;50.812;7.132;2023-02-20T03:22:43;5.67;;;5.17;;
4106;SDS011;21906;50.812;7.132;2023-02-20T03:25:24;6.57;;;5.03;;
4106;SDS011;21906;50.812;7.132;2023-02-20T03:32:56;8.73;;;5.40;;
4106;SDS011;21906;50.812;7.132;2023-02-20T03:35:46;6.20;;;5.40;;
4106;SDS011;21906;50.812;7.132;2023-02-20T03:38:33;8.10;;;5.27;;
4106;SDS011;21906;50.812;7.132;2023-02-20T03:41:22;7.17;;;5.60;;
4106;SDS011;21906;50.812;7.132;2023-02-20T03:44:10;9.20;;;5.53;;
4106;SDS011;21906;50.812;7.132;2023-02-20T03:46:39;6.70;;;5.63;;
4106;SDS011;21906;50.812;7.132;2023-02-20T03:49:10;10.80;;;6.10;;
4106;SDS011;21906;50.812;7.132;2023-02-20T03:51:38;7.50;;;5.67;;
4106;SDS011;21906;50.812;7.132;2023-02-20T03:54:05;7.30;;;5.00;;
4106;SDS011;21906;50.812;7.132;2023-02-20T03:56:34;6.17;;;5.37;;
4106;SDS011;21906;50.812;7.132;2023-02-20T03:59:16;7.47;;;5.53;;
4106;SDS011;21906;50.812;7.132;2023-02-20T04:01:49;7.50;;;5.67;;
4106;SDS011;21906;50.812;7.132;2023-02-20T04:04:20;5.80;;;5.10;;
4106;SDS011;21906;50.812;7.132;2023-02-20T04:06:50;5.90;;;5.30;;
4106;SDS011;21906;50.812;7.132;2023-02-20T04:09:18;6.90;;;5.57;;
4106;SDS011;21906;50.812;7.132;2023-02-20T04:11:53;7.73;;;6.43;;
4106;SDS011;21906;50.812;7.132;2023-02-20T04:14:24;6.50;;;5.50;;
4106;SDS011;21906;50.812;7.132;2023-02-20T04:17:00;8.40;;;5.80;;
4106;SDS011;21906;50.812;7.132;2023-02-20T04:19:29;7.67;;;5.60;;
4106;SDS011;21906;50.812;7.132;2023-02-20T04:21:56;9.53;;;5.83;;
4106;SDS011;21906;50.812;7.132;2023-02-20T04:24:34;9.57;;;6.90;;
4106;SDS011;21906;50.812;7.132;2023-02-20T04:27:01;9.40;;;6.20;;
4106;SDS011;21906;50.812;7.132;2023-02-20T04:29:27;6.90;;;5.60;;
4106;SDS011;21906;50.812;7.132;2023-02-20T04:31:53;11.27;;;6.40;;
4106;SDS011;21906;50.812;7.132;2023-02-20T04:34:19;7.23;;;5.80;;
4106;SDS011;21906;50.812;7.132;2023-02-20T04:36:44;10.13;;;6.60;;
4106;SDS011;21906;50.812;7.132;2023-02-20T04:39:10;6.67;;;6.03;;
4106;SDS011;21906;50.812;7.132;2023-02-20T04:41:36;7.93;;;6.20;;
4106;SDS011;21906;50.812;7.132;2023-02-20T04:44:01;11.47;;;6.37;;
4106;SDS011;21906;50.812;7.132;2023-02-20T04:46:46;7.57;;;5.70;;
4106;SDS011;21906;50.812;7.132;2023-02-20T04:49:11;7.33;;;6.13;;
4106;SDS011;21906;50.812;7.132;2023-02-20T04:51:37;9.10;;;6.57;;
4106;SDS011;21906;50.812;7.132;2023-02-20T04:54:02;9.90;;;6.63;;
4106;SDS011;21906;50.812;7.132;2023-02-20T04:56:28;8.60;;;6.63;;
4106;SDS011;21906;50.812;7.132;2023-02-20T04:58:54;11.97;;;6.63;;
4106;SDS011;21906;50.812;7.132;2023-02-20T05:01:19;12.20;;;6.87;;
4106;SDS011;21906;50.812;7.132;2023-02-20T05:03:45;8.40;;;6.57;;
4106;SDS011;21906;50.812;7.132;2023-02-20T05:06:11;8.73;;;6.57;;
4106;SDS011;21906;50.812;7.132;2023-02-20T05:08:36;12.67;;;6.80;;
4106;SDS011;21906;50.812;7.132;2023-02-20T05:11:02;7.93;;;6.50;;
4106;SDS011;21906;50.812;7.132;2023-02-20T05:13:28;8.70;;;6.70;;
4106;SDS011;21906;50.812;7.132;2023-02-20T05:15:53;9.30;;;6.70;;
4106;SDS011;21906;50.812;7.132;2023-02-20T05:18:23;8.43;;;6.40;;
4106;SDS011;21906;50.812;7.132;2023-02-20T05:20:52;10.73;;;6.93;;
4106;SDS011;21906;50.812;7.132;2023-02-20T05:23:36;7.93;;;6.40;;
4106;SDS011;21906;50.812;7.132;2023-02-20T05:26:02;8.43;;;7.50;;
4106;SDS011;21906;50.812;7.132;2023-02-20T05:28:32;10.27;;;7.17;;
4106;SDS011;21906;50.812;7.132;2023-02-20T05:30:57;9.77;;;7.47;;
4106;SDS011;21906;50.812;7.132;2023-02-20T05:33:23;11.00;;;7.00;;
4106;SDS011;21906;50.812;7.132;2023-02-20T05:35:48;8.60;;;6.50;;
4106;SDS011;21906;50.812;7.132;2023-02-20T05:38:17;7.43;;;6.43;;
4106;SDS011;21906;50.812;7.132;2023-02-20T05:40:43;9.33;;;6.80;;
4106;SDS011;21906;50.812;7.132;2023-02-20T05:43:09;10.80;;;7.20;;
4106;SDS011;21906;50.812;7.132;2023-02-20T05:45:34;7.70;;;6.70;;
4106;SDS011;21906;50.812;7.132;2023-02-20T05:48:00;11.70;;;7.30;;
4106;SDS011;21906;50.812;7.132;2023-02-20T05:50:25;8.40;;;7.00;;
4106;SDS011;21906;50.812;7.132;2023-02-20T05:52:51;10.53;;;6.73;;
4106;SDS011;21906;50.812;7.132;2023-02-20T05:55:17;8.33;;;6.87;;
4106;SDS011;21906;50.812;7.132;2023-02-20T05:57:42;9.80;;;6.83;;
4106;SDS011;21906;50.812;7.132;2023-02-20T06:00:08;9.13;;;6.93;;
4106;SDS011;21906;50.812;7.132;2023-02-20T06:02:35;9.40;;;7.57;;
4106;SDS011;21906;50.812;7.132;2023-02-20T06:05:01;9.97;;;7.50;;
4106;SDS011;21906;50.812;7.132;2023-02-20T06:07:29;9.23;;;6.80;;
4106;SDS011;21906;50.812;7.132;2023-02-20T06:09:55;7.70;;;6.50;;
4106;SDS011;21906;50.812;7.132;2023-02-20T06:12:21;12.63;;;7.30;;
4106;SDS011;21906;50.812;7.132;2023-02-20T06:14:47;11.70;;;7.00;;
4106;SDS011;21906;50.812;7.132;2023-02-20T06:17:12;8.20;;;6.30;;
4106;SDS011;21906;50.812;7.132;2023-02-20T06:19:38;11.10;;;7.37;;
4106;SDS011;21906;50.812;7.132;2023-02-20T06:22:04;7.40;;;6.37;;
4106;SDS011;21906;50.812;7.132;2023-02-20T06:24:29;10.30;;;6.67;;
4106;SDS011;21906;50.812;7.132;2023-02-20T06:26:55;7.50;;;6.60;;
4106;SDS011;21906;50.812;7.132;2023-02-20T06:29:21;9.80;;;6.20;;
4106;SDS011;21906;50.812;7.132;2023-02-20T06:31:47;10.23;;;6.23;;
4106;SDS011;21906;50.812;7.132;2023-02-20T06:34:13;8.90;;;5.90;;
4106;SDS011;21906;50.812;7.132;2023-02-20T06:36:40;6.67;;;5.50;;
4106;SDS011;21906;50.812;7.132;2023-02-20T06:39:07;9.17;;;6.40;;
4106;SDS011;21906;50.812;7.132;2023-02-20T06:41:33;10.30;;;6.80;;
4106;SDS011;21906;50.812;7.132;2023-02-20T06:43:59;7.47;;;5.63;;
4106;SDS011;21906;50.812;7.132;2023-02-20T06:46:25;7.77;;;5.97;;
4106;SDS011;21906;50.812;7.132;2023-02-20T06:48:57;6.60;;;5.70;;
4106;SDS011;21906;50.812;7.132;2023-02-20T06:51:25;12.70;;;6.63;;
4106;SDS011;21906;50.812;7.132;2023-02-20T06:53:55;8.23;;;5.73;;
4106;SDS011;21906;50.812;7.132;2023-02-20T06:56:22;8.60;;;6.47;;
4106;SDS011;21906;50.812;7.132;2023-02-20T06:58:50;10.33;;;6.40;;
4106;SDS011;21906;50.812;7.132;2023-02-20T07:01:17;9.70;;;6.57;;
4106;SDS011;21906;50.812;7.132;2023-02-20T07:03:44;10.40;;;6.60;;
4106;SDS011;21906;50.812;7.132;2023-02-20T07:06:11;7.33;;;6.10;;
4106;SDS011;21906;50.812;7.132;2023-02-20T07:08:36;9.13;;;6.43;;
4106;SDS011;21906;50.812;7.132;2023-02-20T07:11:02;9.67;;;6.80;;
4106;SDS011;21906;50.812;7.132;2023-02-20T07:13:28;10.80;;;7.27;;
4106;SDS011;21906;50.812;7.132;2023-02-20T07:15:53;8.03;;;6.20;;
4106;SDS011;21906;50.812;7.132;2023-02-20T07:18:19;10.37;;;6.70;;
4106;SDS011;21906;50.812;7.132;2023-02-20T07:20:52;7.23;;;6.23;;
4106;SDS011;21906;50.812;7.132;2023-02-20T07:23:18;8.70;;;6.23;;
4106;SDS011;21906;50.812;7.132;2023-02-20T07:25:44;11.93;;;7.27;;
4106;SDS011;21906;50.812;7.132;2023-02-20T07:28:09;8.30;;;6.50;;
4106;SDS011;21906;50.812;7.132;2023-02-20T07:30:35;10.13;;;7.27;;
4106;SDS011;21906;50.812;7.132;2023-02-20T07:33:01;8.80;;;6.33;;
4106;SDS011;21906;50.812;7.132;2023-02-20T07:35:27;10.03;;;7.00;;
4106;SDS011;21906;50.812;7.132;2023-02-20T07:37:52;9.00;;;6.43;;
4106;SDS011;21906;50.812;7.132;2023-02-20T07:40:18;9.40;;;7.00;;
4106;SDS011;21906;50.812;7.132;2023-02-20T07:42:44;9.87;;;6.63;;
4106;SDS011;21906;50.812;7.132;2023-02-20T07:45:10;8.00;;;6.70;;
4106;SDS011;21906;50.812;7.132;2023-02-20T07:47:36;10.47;;;6.50;;
4106;SDS011;21906;50.812;7.132;2023-02-20T07:50:01;9.33;;;6.80;;
4106;SDS011;21906;50.812;7.132;2023-02-20T07:52:27;10.50;;;6.77;;
4106;SDS011;21906;50.812;7.132;2023-02-20T07:54:53;8.60;;;6.60;;
4106;SDS011;21906;50.812;7.132;2023-02-20T07:57:19;13.17;;;7.43;;
4106;SDS011;21906;50.812;7.132;2023-02-20T07:59:45;11.43;;;6.70;;
4106;SDS011;21906;50.812;7.132;2023-02-20T08:02:10;7.80;;;7.00;;
4106;SDS011;21906;50.812;7.132;2023-02-20T08:04:36;9.77;;;7.00;;
4106;SDS011;21906;50.812;7.132;2023-02-20T08:07:03;11.40;;;7.10;;
4106;SDS011;21906;50.812;7.132;2023-02-20T08:09:30;7.83;;;6.80;;
4106;SDS011;21906;50.812;7.132;2023-02-20T08:11:57;8.00;;;6.30;;
4106;SDS011;21906;50.812;7.132;2023-02-20T08:14:22;7.20;;;5.90;;
4106;SDS011;21906;50.812;7.132;2023-02-20T08:16:48;11.67;;;6.20;;
4106;SDS011;21906;50.812;7.132;2023-02-20T08:19:14;8.40;;;6.20;;
4106;SDS011;21906;50.812;7.132;2023-02-20T08:21:40;11.50;;;6.00;;
4106;SDS011;21906;50.812;7.132;2023-02-20T08:24:05;7.83;;;6.27;;
4106;SDS011;21906;50.812;7.132;2023-02-20T08:26:31;7.43;;;5.90;;
4106;SDS011;21906;50.812;7.132;2023-02-20T08:29:00;7.30;;;5.83;;
4106;SDS011;21906;50.812;7.132;2023-02-20T08:31:26;7.33;;;5.57;;
4106;SDS011;21906;50.812;7.132;2023-02-20T08:33:52;7.37;;;6.40;;
4106;SDS011;21906;50.812;7.132;2023-02-20T08:36:18;7.03;;;5.83;;
4106;SDS011;21906;50.812;7.132;2023-02-20T08:38:44;8.10;;;5.80;;
4106;SDS011;21906;50.812;7.132;2023-02-20T08:41:10;6.10;;;5.50;;
4106;SDS011;21906;50.812;7.132;2023-02-20T08:43:37;6.90;;;5.30;;
4106;SDS011;21906;50.812;7.132;2023-02-20T08:46:04;6.30;;;4.47;;
4106;SDS011;21906;50.812;7.132;2023-02-20T08:48:31;5.83;;;4.43;;
4106;SDS011;21906;50.812;7.132;2023-02-20T08:50:57;5.90;;;4.63;;
4106;SDS011;21906;50.812;7.132;2023-02-20T08:53:23;5.07;;;4.50;;
4106;SDS011;21906;50.812;7.132;2023-02-20T08:55:49;7.17;;;4.40;;
4106;SDS011;21906;50.812;7.132;2023-02-20T08:58:22;5.00;;;4.50;;
4106;SDS011;21906;50.812;7.132;2023-02-20T09:00:48;5.30;;;4.03;;
4106;SDS011;21906;50.812;7.132;2023-02-20T09:03:15;6.07;;;4.70;;
4106;SDS011;21906;50.812;7.132;2023-02-20T09:05:41;9.73;;;5.53;;
4106;SDS011;21906;50.812;7.132;2023-02-20T09:08:07;9.30;;;6.13;;
4106;SDS011;21906;50.812;7.132;2023-02-20T09:10:33;7.77;;;4.90;;
4106;SDS011;21906;50.812;7.132;2023-02-20T09:12:59;6.20;;;5.50;;
4106;SDS011;21906;50.812;7.132;2023-02-20T09:15:24;8.03;;;5.50;;
4106;SDS011;21906;50.812;7.132;2023-02-20T09:17:50;10.10;;;6.07;;
4106;SDS011;21906;50.812;7.132;2023-02-20T09:20:18;9.30;;;6.40;;
4106;SDS011;21906;50.812;7.132;2023-02-20T09:22:48;6.50;;;5.60;;
4106;SDS011;21906;50.812;7.132;2023-02-20T09:25:15;10.53;;;6.70;;
4106;SDS011;21906;50.812;7.132;2023-02-20T09:27:42;8.73;;;6.43;;
4106;SDS011;21906;50.812;7.132;2023-02-20T09:30:08;9.47;;;6.67;;
4106;SDS011;21906;50.812;7.132;2023-02-20T09:32:38;8.83;;;6.03;;
4106;SDS011;21906;50.812;7.132;2023-02-20T09:35:04;11.00;;;7.10;;
4106;SDS011;21906;50.812;7.132;2023-02-20T09:37:30;10.60;;;6.70;;
4106;SDS011;21906;50.812;7.132;2023-02-20T09:39:55;9.00;;;7.17;;
4106;SDS011;21906;50.812;7.132;2023-02-20T09:45:11;12.70;;;7.20;;
4106;SDS011;21906;50.812;7.132;2023-02-20T09:53:13;10.40;;;6.80;;
4106;SDS011;21906;50.812;7.132;2023-02-20T09:55:45;7.50;;;6.47;;
4106;SDS011;21906;50.812;7.132;2023-02-20T09:58:19;6.87;;;6.17;;
4106;SDS011;21906;50.812;7.132;2023-02-20T10:01:01;9.10;;;7.07;;
4106;SDS011;21906;50.812;7.132;2023-02-20T10:03:35;7.00;;;6.23;;
4106;SDS011;21906;50.812;7.132;2023-02-20T10:06:16;9.23;;;6.43;;
4106;SDS011;21906;50.812;7.132;2023-02-20T10:08:46;10.17;;;6.83;;
4106;SDS011;21906;50.812;7.132;2023-02-20T10:11:15;7.87;;;6.33;;
4106;SDS011;21906;50.812;7.132;2023-02-20T10:14:05;8.10;;;6.50;;
4106;SDS011;21906;50.812;7.132;2023-02-20T10:17:02;8.70;;;6.50;;
4106;SDS011;21906;50.812;7.132;2023-02-20T10:22:38;6.43;;;5.83;;
4106;SDS011;21906;50.812;7.132;2023-02-20T10:25:13;6.73;;;5.97;;
4106;SDS011;21906;50.812;7.132;2023-02-20T10:27:53;10.73;;;7.00;;
4106;SDS011;21906;50.812;7.132;2023-02-20T10:30:24;8.20;;;6.90;;
4106;SDS011;21906;50.812;7.132;2023-02-20T10:35:53;7.40;;;5.87;;
4106;SDS011;21906;50.812;7.132;2023-02-20T10:38:25;10.10;;;6.33;;
4106;SDS011;21906;50.812;7.132;2023-02-20T10:48:42;10.80;;;6.93;;
4106;SDS011;21906;50.812;7.132;2023-02-20T10:51:43;8.50;;;6.63;;
4106;SDS011;21906;50.812;7.132;2023-02-20T10:54:12;7.53;;;5.83;;
4106;SDS011;21906;50.812;7.132;2023-02-20T10:59:28;8.47;;;6.53;;
4106;SDS011;21906;50.812;7.132;2023-02-20T11:02:08;8.17;;;6.90;;
4106;SDS011;21906;50.812;7.132;2023-02-20T11:04:40;8.40;;;6.60;;
4106;SDS011;21906;50.812;7.132;2023-02-20T11:07:14;8.83;;;6.60;;
4106;SDS011;21906;50.812;7.132;2023-02-20T11:09:43;7.93;;;7.20;;
4106;SDS011;21906;50.812;7.132;2023-02-20T11:12:18;11.33;;;8.07;;
4106;SDS011;21906;50.812;7.132;2023-02-20T11:14:57;10.40;;;7.40;;
4106;SDS011;21906;50.812;7.132;2023-02-20T11:17:28;7.53;;;6.60;;
4106;SDS011;21906;50.812;7.132;2023-02-20T11:19:55;9.63;;;7.00;;
4106;SDS011;21906;50.812;7.132;2023-02-20T11:22:38;10.50;;;7.10;;
4106;SDS011;21906;50.812;7.132;2023-02-20T11:25:17;10.17;;;7.17;;
4106;SDS011;21906;50.812;7.132;2023-02-20T11:27:49;10.07;;;7.60;;
4106;SDS011;21906;50.812;7.132;2023-02-20T11:33:13;8.97;;;7.10;;
4106;SDS011;21906;50.812;7.132;2023-02-20T11:35:42;8.60;;;7.07;;
4106;SDS011;21906;50.812;7.132;2023-02-20T11:40:42;8.00;;;7.20;;
4106;SDS011;21906;50.812;7.132;2023-02-20T11:43:21;12.47;;;7.43;;
4106;SDS011;21906;50.812;7.132;2023-02-20T11:46:36;10.37;;;7.40;;
4106;SDS011;21906;50.812;7.132;2023-02-20T11:48:37;8.70;;;7.60;;
4106;SDS011;21906;50.812;7.132;2023-02-20T11:51:03;11.90;;;7.67;;
4106;SDS011;21906;50.812;7.132;2023-02-20T11:53:30;8.20;;;6.67;;
4106;SDS011;21906;50.812;7.132;2023-02-20T11:58:44;11.00;;;7.10;;
4106;SDS011;21906;50.812;7.132;2023-02-20T12:01:27;10.50;;;7.53;;
4106;SDS011;21906;50.812;7.132;2023-02-20T12:03:56;10.63;;;7.40;;
4106;SDS011;21906;50.812;7.132;2023-02-20T12:08:57;10.07;;;7.20;;
4106;SDS011;21906;50.812;7.132;2023-02-20T12:11:26;9.13;;;7.10;;
4106;SDS011;21906;50.812;7.132;2023-02-20T12:13:54;10.47;;;6.83;;
4106;SDS011;21906;50.812;7.132;2023-02-20T12:16:27;10.40;;;8.10;;
4106;SDS011;21906;50.812;7.132;2023-02-20T12:18:57;8.53;;;7.47;;
4106;SDS011;21906;50.812;7.132;2023-02-20T12:36:26;10.17;;;8.27;;
4106;SDS011;21906;50.812;7.132;2023-02-20T12:46:28;9.30;;;7.77;;
4106;SDS011;21906;50.812;7.132;2023-02-20T12:51:36;13.33;;;8.13;;
4106;SDS011;21906;50.812;7.132;2023-02-20T13:02:34;14.30;;;9.40;;
4106;SDS011;21906;50.812;7.132;2023-02-20T13:05:15;14.60;;;9.10;;
4106;SDS011;21906;50.812;7.132;2023-02-20T13:07:45;12.97;;;9.47;;
4106;SDS011;21906;50.812;7.132;2023-02-20T13:10:19;12.83;;;9.13;;
4106;SDS011;21906;50.812;7.132;2023-02-20T13:12:50;14.53;;;9.53;;
4106;SDS011;21906;50.812;7.132;2023-02-20T13:15:35;12.63;;;9.10;;
4106;SDS011;21906;50.812;7.132;2023-02-20T13:20:54;13.73;;;9.07;;
4106;SDS011;21906;50.812;7.132;2023-02-20T13:25:48;12.30;;;9.30;;
4106;SDS011;21906;50.812;7.132;2023-02-20T13:33:33;11.53;;;8.10;;
4106;SDS011;21906;50.812;7.132;2023-02-20T13:36:01;12.80;;;9.10;;
4106;SDS011;21906;50.812;7.132;2023-02-20T13:38:28;11.50;;;8.97;;
4106;SDS011;21906;50.812;7.132;2023-02-20T13:56:21;13.37;;;9.50;;
4106;SDS011;21906;50.812;7.132;2023-02-20T13:59:11;13.27;;;9.43;;
4106;SDS011;21906;50.812;7.132;2023-02-20T14:02:00;12.90;;;8.97;;
4106;SDS011;21906;50.812;7.132;2023-02-20T14:04:28;15.93;;;10.50;;
4106;SDS011;21906;50.812;7.132;2023-02-20T14:06:55;15.60;;;10.10;;
4106;SDS011;21906;50.812;7.132;2023-02-20T14:09:22;12.87;;;9.80;;
4106;SDS011;21906;50.812;7.132;2023-02-20T14:11:52;12.53;;;9.37;;
4106;SDS011;21906;50.812;7.132;2023-02-20T14:16:52;12.30;;;8.90;;
4106;SDS011;21906;50.812;7.132;2023-02-20T14:19:41;13.80;;;9.40;;
4106;SDS011;21906;50.812;7.132;2023-02-20T14:27:35;17.80;;;9.40;;
4106;SDS011;21906;50.812;7.132;2023-02-20T14:32:31;11.23;;;8.70;;
4106;SDS011;21906;50.812;7.132;2023-02-20T14:35:06;14.23;;;9.90;;
4106;SDS011;21906;50.812;7.132;2023-02-20T14:38:01;13.73;;;10.07;;
4106;SDS011;21906;50.812;7.132;2023-02-20T14:40:38;12.03;;;9.20;;
4106;SDS011;21906;50.812;7.132;2023-02-20T14:43:13;10.60;;;8.67;;
4106;SDS011;21906;50.812;7.132;2023-02-20T14:45:45;13.73;;;9.13;;
4106;SDS011;21906;50.812;7.132;2023-02-20T14:48:23;15.70;;;10.47;;
4106;SDS011;21906;50.812;7.132;2023-02-20T14:53:33;11.73;;;9.10;;
4106;SDS011;21906;50.812;7.132;2023-02-20T14:56:16;13.10;;;9.60;;
4106;SDS011;21906;50.812;7.132;2023-02-20T14:58:46;13.50;;;10.17;;
4106;SDS011;21906;50.812;7.132;2023-02-20T15:01:12;14.67;;;10.60;;
4106;SDS011;21906;50.812;7.132;2023-02-20T15:04:04;13.00;;;10.00;;
4106;SDS011;21906;50.812;7.132;2023-02-20T15:06:39;14.47;;;9.30;;
4106;SDS011;21906;50.812;7.132;2023-02-20T15:09:07;12.90;;;8.80;;
4106;SDS011;21906;50.812;7.132;2023-02-20T15:11:34;13.70;;;8.90;;
4106;SDS011;21906;50.812;7.132;2023-02-20T15:14:01;15.30;;;10.17;;
4106;SDS011;21906;50.812;7.132;2023-02-20T15:16:28;13.37;;;10.40;;
4106;SDS011;21906;50.812;7.132;2023-02-20T15:18:56;12.60;;;9.33;;
4106;SDS011;21906;50.812;7.132;2023-02-20T15:21:32;14.23;;;9.70;;
4106;SDS011;21906;50.812;7.132;2023-02-20T15:24:10;18.77;;;10.20;;
4106;SDS011;21906;50.812;7.132;2023-02-20T15:27:15;10.73;;;8.43;;
4106;SDS011;21906;50.812;7.132;2023-02-20T15:29:44;13.43;;;9.47;;
4106;SDS011;21906;50.812;7.132;2023-02-20T15:32:16;13.50;;;9.20;;
4106;SDS011;21906;50.812;7.132;2023-02-20T15:34:55;17.07;;;10.60;;
4106;SDS011;21906;50.812;7.132;2023-02-20T15:37:29;12.43;;;8.90;;
4106;SDS011;21906;50.812;7.132;2023-02-20T15:40:08;15.77;;;10.40;;
4106;SDS011;21906;50.812;7.132;2023-02-20T15:42:37;14.47;;;10.30;;
4106;SDS011;21906;50.812;7.132;2023-02-20T15:45:03;13.20;;;9.40;;
4106;SDS011;21906;50.812;7.132;2023-02-20T15:47:28;16.27;;;10.43;;
4106;SDS011;21906;50.812;7.132;2023-02-20T15:49:54;15.00;;;10.20;;
4106;SDS011;21906;50.812;7.132;2023-02-20T15:52:20;12.57;;;9.90;;
4106;SDS011;21906;50.812;7.132;2023-02-20T15:54:51;14.27;;;9.50;;
4106;SDS011;21906;50.812;7.132;2023-02-20T15:57:19;14.43;;;10.30;;
4106;SDS011;21906;50.812;7.132;2023-02-20T15:59:45;16.37;;;10.50;;
4106;SDS011;21906;50.812;7.132;2023-02-20T16:02:12;13.33;;;9.60;;
4106;SDS011;21906;50.812;7.132;2023-02-20T16:04:43;14.60;;;10.50;;
4106;SDS011;21906;50.812;7.132;2023-02-20T16:07:09;15.07;;;10.60;;
4106;SDS011;21906;50.812;7.132;2023-02-20T16:09:35;14.63;;;10.33;;
4106;SDS011;21906;50.812;7.132;2023-02-20T16:12:00;12.50;;;8.63;;
4106;SDS011;21906;50.812;7.132;2023-02-20T16:14:26;14.63;;;9.87;;
4106;SDS011;21906;50.812;7.132;2023-02-20T16:16:52;14.77;;;10.03;;
4106;SDS011;21906;50.812;7.132;2023-02-20T16:19:19;11.63;;;9.63;;
4106;SDS011;21906;50.812;7.132;2023-02-20T16:21:46;13.20;;;9.87;;
4106;SDS011;21906;50.812;7.132;2023-02-20T16:24:12;10.03;;;8.70;;
4106;SDS011;21906;50.812;7.132;2023-02-20T16:26:39;11.53;;;8.10;;
4106;SDS011;21906;50.812;7.132;2023-02-20T16:29:10;14.17;;;9.80;;
4106;SDS011;21906;50.812;7.132;2023-02-20T16:34:18;14.23;;;9.73;;
4106;SDS011;21906;50.812;7.132;2023-02-20T16:36:45;15.90;;;10.13;;
4106;SDS011;21906;50.812;7.132;2023-02-20T16:39:14;16.03;;;10.33;;
4106;SDS011;21906;50.812;7.132;2023-02-20T16:41:42;14.23;;;10.60;;
4106;SDS011;21906;50.812;7.132;2023-02-20T16:44:13;13.27;;;10.17;;
4106;SDS011;21906;50.812;7.132;2023-02-20T16:46:46;13.90;;;9.50;;
4106;SDS011;21906;50.812;7.132;2023-02-20T16:49:12;14.93;;;11.03;;
4106;SDS011;21906;50.812;7.132;2023-02-20T16:51:39;13.33;;;10.20;;
4106;SDS011;21906;50.812;7.132;2023-02-20T16:54:12;14.37;;;11.00;;
4106;SDS011;21906;50.812;7.132;2023-02-20T16:56:41;16.20;;;10.53;;
4106;SDS011;21906;50.812;7.132;2023-02-20T16:59:07;15.77;;;10.00;;
4106;SDS011;21906;50.812;7.132;2023-02-20T17:01:34;16.13;;;11.00;;
4106;SDS011;21906;50.812;7.132;2023-02-20T17:04:00;17.40;;;11.60;;
4106;SDS011;21906;50.812;7.132;2023-02-20T17:06:26;12.50;;;9.50;;
4106;SDS011;21906;50.812;7.132;2023-02-20T17:08:57;17.40;;;11.70;;
4106;SDS011;21906;50.812;7.132;2023-02-20T17:11:25;14.30;;;10.53;;
4106;SDS011;21906;50.812;7.132;2023-02-20T17:13:50;15.97;;;10.50;;
4106;SDS011;21906;50.812;7.132;2023-02-20T17:16:16;16.70;;;10.80;;
4106;SDS011;21906;50.812;7.132;2023-02-20T17:18:42;14.53;;;10.53;;
4106;SDS011;21906;50.812;7.132;2023-02-20T17:21:08;14.60;;;11.10;;
4106;SDS011;21906;50.812;7.132;2023-02-20T17:23:34;13.80;;;10.00;;
4106;SDS011;21906;50.812;7.132;2023-02-20T17:26:00;13.90;;;9.50;;
4106;SDS011;21906;50.812;7.132;2023-02-20T17:28:26;14.33;;;9.70;;